sensor_id;sensor_type;location;lat;lon;timestamp;pressure;altitude;pressure_sealevel;temperature;humidity
19447;BME280;9862;49.462;11.054;2023-06-04T00:00:26;98158.50;;;18.68;41.97
19447;BME280;9862;49.462;11.054;2023-06-04T00:02:53;98156.63;;;18.68;41.47
19447;BME280;9862;49.462;11.054;2023-06-04T00:05:20;98150.69;;;18.66;41.33
19447;BME280;9862;49.462;11.054;2023-06-04T00:07:50;98148.81;;;18.72;40.58
19447;BME280;9862;49.462;11.054;2023-06-04T00:10:17;98148.53;;;18.68;39.99
19447;BME280;9862;49.462;11.054;2023-06-04T00:12:45;98144.72;;;18.64;40.18
19447;BME280;9862;49.462;11.054;2023-06-04T00:15:13;98143.31;;;18.62;39.95
19447;BME280;9862;49.462;11.054;2023-06-04T00:17:40;98140.88;;;18.60;39.92
19447;BME280;9862;49.462;11.054;2023-06-04T00:20:07;98134.44;;;18.61;40.00
19447;BME280;9862;49.462;11.054;2023-06-04T00:22:35;98130.66;;;18.62;39.89
19447;BME280;9862;49.462;11.054;2023-06-04T00:25:01;98136.03;;;18.62;40.03
19447;BME280;9862;49.462;11.054;2023-06-04T00:27:28;98131.72;;;18.61;39.82
19447;BME280;9862;49.462;11.054;2023-06-04T00:29:56;98133.63;;;18.60;39.51
19447;BME280;9862;49.462;11.054;2023-06-04T00:32:23;98138.72;;;18.57;39.36
19447;BME280;9862;49.462;11.054;2023-06-04T00:34:54;98133.28;;;18.52;39.65
19447;BME280;9862;49.462;11.054;2023-06-04T00:37:23;98135.47;;;18.55;39.12
19447;BME280;9862;49.462;11.054;2023-06-04T00:39:50;98134.88;;;18.48;39.48
19447;BME280;9862;49.462;11.054;2023-06-04T00:42:16;98140.19;;;18.43;39.86
19447;BME280;9862;49.462;11.054;2023-06-04T00:44:43;98138.56;;;18.42;39.63
19447;BME280;9862;49.462;11.054;2023-06-04T00:47:12;98137.84;;;18.51;39.96
19447;BME280;9862;49.462;11.054;2023-06-04T00:49:39;98135.13;;;18.46;39.42
19447;BME280;9862;49.462;11.054;2023-06-04T00:52:08;98142.34;;;18.41;39.92
19447;BME280;9862;49.462;11.054;2023-06-04T00:54:35;98138.81;;;18.35;40.03
19447;BME280;9862;49.462;11.054;2023-06-04T00:57:02;98139.34;;;18.37;40.14
19447;BME280;9862;49.462;11.054;2023-06-04T00:59:30;98139.09;;;18.39;40.27
19447;BME280;9862;49.462;11.054;2023-06-04T01:02:01;98141.53;;;18.40;40.13
19447;BME280;9862;49.462;11.054;2023-06-04T01:04:33;98142.91;;;18.43;40.70
19447;BME280;9862;49.462;11.054;2023-06-04T01:07:03;98138.50;;;18.31;40.33
19447;BME280;9862;49.462;11.054;2023-06-04T01:09:30;98143.88;;;18.31;40.46
19447;BME280;9862;49.462;11.054;2023-06-04T01:11:57;98147.66;;;18.30;40.43
19447;BME280;9862;49.462;11.054;2023-06-04T01:14:24;98144.69;;;18.32;40.55
19447;BME280;9862;49.462;11.054;2023-06-04T01:16:55;98151.41;;;18.29;40.66
19447;BME280;9862;49.462;11.054;2023-06-04T01:19:46;98157.09;;;18.33;40.32
19447;BME280;9862;49.462;11.054;2023-06-04T01:22:29;98146.03;;;18.29;40.60
19447;BME280;9862;49.462;11.054;2023-06-04T01:25:02;98151.50;;;18.40;39.62
19447;BME280;9862;49.462;11.054;2023-06-04T01:27:30;98155.44;;;18.27;40.04
19447;BME280;9862;49.462;11.054;2023-06-04T01:29:57;98150.03;;;18.27;40.19
19447;BME280;9862;49.462;11.054;2023-06-04T01:32:26;98158.53;;;18.14;40.85
19447;BME280;9862;49.462;11.054;2023-06-04T01:34:54;98156.91;;;17.86;41.71
19447;BME280;9862;49.462;11.054;2023-06-04T01:37:21;98163.25;;;17.58;42.33
19447;BME280;9862;49.462;11.054;2023-06-04T01:39:47;98158.56;;;17.48;43.04
19447;BME280;9862;49.462;11.054;2023-06-04T01:42:14;98154.09;;;17.37;43.34
19447;BME280;9862;49.462;11.054;2023-06-04T01:44:41;98163.44;;;17.29;44.16
19447;BME280;9862;49.462;11.054;2023-06-04T01:47:07;98161.25;;;17.48;43.93
19447;BME280;9862;49.462;11.054;2023-06-04T01:49:34;98163.09;;;17.26;44.44
19447;BME280;9862;49.462;11.054;2023-06-04T01:52:05;98168.09;;;17.17;45.13
19447;BME280;9862;49.462;11.054;2023-06-04T01:54:32;98164.34;;;17.18;45.60
19447;BME280;9862;49.462;11.054;2023-06-04T01:56:59;98166.22;;;17.17;45.70
19447;BME280;9862;49.462;11.054;2023-06-04T01:59:26;98161.50;;;17.08;46.26
19447;BME280;9862;49.462;11.054;2023-06-04T02:01:52;98165.91;;;16.97;46.03
19447;BME280;9862;49.462;11.054;2023-06-04T02:04:19;98173.81;;;16.87;46.74
19447;BME280;9862;49.462;11.054;2023-06-04T02:06:46;98174.06;;;16.85;47.91
19447;BME280;9862;49.462;11.054;2023-06-04T02:09:15;98173.25;;;17.02;47.34
19447;BME280;9862;49.462;11.054;2023-06-04T02:11:42;98176.84;;;16.91;47.31
19447;BME280;9862;49.462;11.054;2023-06-04T02:14:10;98175.94;;;16.85;48.10
19447;BME280;9862;49.462;11.054;2023-06-04T02:16:40;98181.41;;;16.73;48.35
19447;BME280;9862;49.462;11.054;2023-06-04T02:19:09;98184.97;;;16.79;48.10
19447;BME280;9862;49.462;11.054;2023-06-04T02:21:38;98184.63;;;16.58;49.60
19447;BME280;9862;49.462;11.054;2023-06-04T02:24:05;98188.88;;;16.54;50.04
19447;BME280;9862;49.462;11.054;2023-06-04T02:26:34;98187.31;;;16.58;49.85
19447;BME280;9862;49.462;11.054;2023-06-04T02:29:01;98189.84;;;16.65;49.86
19447;BME280;9862;49.462;11.054;2023-06-04T02:31:27;98184.81;;;16.69;48.98
19447;BME280;9862;49.462;11.054;2023-06-04T02:33:55;98192.78;;;16.64;49.24
19447;BME280;9862;49.462;11.054;2023-06-04T02:36:22;98194.25;;;16.54;50.40
19447;BME280;9862;49.462;11.054;2023-06-04T02:38:48;98190.31;;;16.45;50.69
19447;BME280;9862;49.462;11.054;2023-06-04T02:41:16;98190.63;;;16.32;51.60
19447;BME280;9862;49.462;11.054;2023-06-04T02:43:44;98187.28;;;16.25;52.83
19447;BME280;9862;49.462;11.054;2023-06-04T02:46:11;98178.31;;;16.19;52.94
19447;BME280;9862;49.462;11.054;2023-06-04T02:48:37;98187.16;;;16.20;53.73
19447;BME280;9862;49.462;11.054;2023-06-04T02:51:04;98176.28;;;16.26;54.16
19447;BME280;9862;49.462;11.054;2023-06-04T02:53:31;98177.44;;;16.47;53.38
19447;BME280;9862;49.462;11.054;2023-06-04T02:55:57;98178.75;;;16.45;52.96
19447;BME280;9862;49.462;11.054;2023-06-04T02:58:25;98184.78;;;16.35;54.08
19447;BME280;9862;49.462;11.054;2023-06-04T03:00:53;98186.22;;;16.26;55.83
19447;BME280;9862;49.462;11.054;2023-06-04T03:03:20;98184.44;;;16.31;55.79
19447;BME280;9862;49.462;11.054;2023-06-04T03:05:46;98190.66;;;16.20;56.17
19447;BME280;9862;49.462;11.054;2023-06-04T03:08:13;98188.78;;;16.21;58.44
19447;BME280;9862;49.462;11.054;2023-06-04T03:10:40;98183.16;;;16.34;58.10
19447;BME280;9862;49.462;11.054;2023-06-04T03:13:06;98192.53;;;16.20;58.52
19447;BME280;9862;49.462;11.054;2023-06-04T03:15:33;98204.09;;;16.20;58.15
19447;BME280;9862;49.462;11.054;2023-06-04T03:18:01;98187.84;;;16.27;58.46
19447;BME280;9862;49.462;11.054;2023-06-04T03:20:28;98201.47;;;16.09;59.41
19447;BME280;9862;49.462;11.054;2023-06-04T03:22:55;98201.28;;;15.98;62.37
19447;BME280;9862;49.462;11.054;2023-06-04T03:25:21;98202.91;;;15.99;61.55
19447;BME280;9862;49.462;11.054;2023-06-04T03:27:48;98197.69;;;15.93;62.82
19447;BME280;9862;49.462;11.054;2023-06-04T03:30:15;98201.19;;;15.82;64.14
19447;BME280;9862;49.462;11.054;2023-06-04T03:32:41;98208.88;;;15.90;64.47
19447;BME280;9862;49.462;11.054;2023-06-04T03:35:10;98210.06;;;15.82;65.33
19447;BME280;9862;49.462;11.054;2023-06-04T03:37:37;98201.25;;;15.70;67.29
19447;BME280;9862;49.462;11.054;2023-06-04T03:40:05;98206.56;;;15.82;67.84
19447;BME280;9862;49.462;11.054;2023-06-04T03:42:32;98205.88;;;15.86;65.10
19447;BME280;9862;49.462;11.054;2023-06-04T03:44:59;98203.94;;;15.70;68.83
19447;BME280;9862;49.462;11.054;2023-06-04T03:47:25;98209.75;;;15.43;70.76
19447;BME280;9862;49.462;11.054;2023-06-04T03:49:52;98212.34;;;15.38;72.44
19447;BME280;9862;49.462;11.054;2023-06-04T03:52:20;98215.72;;;15.34;74.64
19447;BME280;9862;49.462;11.054;2023-06-04T03:54:46;98221.22;;;15.27;73.81
19447;BME280;9862;49.462;11.054;2023-06-04T03:57:13;98217.72;;;15.38;74.19
19447;BME280;9862;49.462;11.054;2023-06-04T03:59:40;98214.56;;;15.41;75.49
19447;BME280;9862;49.462;11.054;2023-06-04T04:02:06;98212.34;;;15.38;75.93
19447;BME280;9862;49.462;11.054;2023-06-04T04:04:33;98216.78;;;15.44;74.53
19447;BME280;9862;49.462;11.054;2023-06-04T04:07:00;98217.00;;;15.43;74.90
19447;BME280;9862;49.462;11.054;2023-06-04T04:09:28;98219.81;;;15.36;75.27
19447;BME280;9862;49.462;11.054;2023-06-04T04:11:55;98224.94;;;15.38;75.26
19447;BME280;9862;49.462;11.054;2023-06-04T04:14:21;98225.63;;;15.33;76.76
19447;BME280;9862;49.462;11.054;2023-06-04T04:16:48;98217.97;;;15.25;77.98
19447;BME280;9862;49.462;11.054;2023-06-04T04:19:15;98218.19;;;15.35;77.01
19447;BME280;9862;49.462;11.054;2023-06-04T04:21:41;98221.31;;;15.32;77.92
19447;BME280;9862;49.462;11.054;2023-06-04T04:24:08;98214.81;;;15.28;79.07
19447;BME280;9862;49.462;11.054;2023-06-04T04:26:36;98227.75;;;15.31;76.58
19447;BME280;9862;49.462;11.054;2023-06-04T04:29:03;98212.22;;;15.33;76.92
19447;BME280;9862;49.462;11.054;2023-06-04T04:31:29;98218.19;;;15.35;76.79
19447;BME280;9862;49.462;11.054;2023-06-04T04:33:57;98208.50;;;15.46;72.91
19447;BME280;9862;49.462;11.054;2023-06-04T04:36:25;98219.09;;;15.53;72.31
19447;BME280;9862;49.462;11.054;2023-06-04T04:38:52;98218.63;;;15.56;73.56
19447;BME280;9862;49.462;11.054;2023-06-04T04:41:20;98224.44;;;15.53;73.45
19447;BME280;9862;49.462;11.054;2023-06-04T04:43:49;98228.88;;;15.59;74.78
19447;BME280;9862;49.462;11.054;2023-06-04T04:46:16;98229.69;;;15.59;75.25
19447;BME280;9862;49.462;11.054;2023-06-04T04:48:42;98234.25;;;15.59;73.50
19447;BME280;9862;49.462;11.054;2023-06-04T04:51:09;98234.72;;;15.56;75.32
19447;BME280;9862;49.462;11.054;2023-06-04T04:53:36;98235.31;;;15.46;73.73
19447;BME280;9862;49.462;11.054;2023-06-04T04:56:02;98233.31;;;15.41;75.40
19447;BME280;9862;49.462;11.054;2023-06-04T04:58:29;98232.97;;;15.50;74.95
19447;BME280;9862;49.462;11.054;2023-06-04T05:00:57;98236.34;;;15.57;74.49
19447;BME280;9862;49.462;11.054;2023-06-04T05:03:24;98223.66;;;15.64;76.84
19447;BME280;9862;49.462;11.054;2023-06-04T05:05:51;98235.19;;;15.76;75.36
19447;BME280;9862;49.462;11.054;2023-06-04T05:08:17;98241.47;;;15.93;73.84
19447;BME280;9862;49.462;11.054;2023-06-04T05:10:44;98242.78;;;16.08;75.30
19447;BME280;9862;49.462;11.054;2023-06-04T05:13:10;98248.66;;;16.05;74.79
19447;BME280;9862;49.462;11.054;2023-06-04T05:15:37;98244.91;;;16.06;75.04
19447;BME280;9862;49.462;11.054;2023-06-04T05:18:06;98246.25;;;16.20;73.93
19447;BME280;9862;49.462;11.054;2023-06-04T05:20:33;98247.13;;;16.37;72.54
19447;BME280;9862;49.462;11.054;2023-06-04T05:23:02;98239.91;;;16.54;69.74
19447;BME280;9862;49.462;11.054;2023-06-04T05:25:29;98244.75;;;16.69;67.67
19447;BME280;9862;49.462;11.054;2023-06-04T05:27:56;98242.44;;;16.90;60.83
19447;BME280;9862;49.462;11.054;2023-06-04T05:30:23;98250.31;;;16.96;60.13
19447;BME280;9862;49.462;11.054;2023-06-04T05:32:50;98248.63;;;17.07;59.55
19447;BME280;9862;49.462;11.054;2023-06-04T05:35:20;98250.19;;;17.20;59.60
19447;BME280;9862;49.462;11.054;2023-06-04T05:37:46;98247.63;;;17.30;57.54
19447;BME280;9862;49.462;11.054;2023-06-04T05:40:19;98248.34;;;17.42;58.25
19447;BME280;9862;49.462;11.054;2023-06-04T05:42:46;98256.06;;;17.55;58.39
19447;BME280;9862;49.462;11.054;2023-06-04T05:45:13;98257.75;;;17.78;55.69
19447;BME280;9862;49.462;11.054;2023-06-04T05:47:40;98258.63;;;17.84;54.85
19447;BME280;9862;49.462;11.054;2023-06-04T05:50:07;98260.13;;;17.74;54.71
19447;BME280;9862;49.462;11.054;2023-06-04T05:52:35;98265.28;;;17.59;55.67
19447;BME280;9862;49.462;11.054;2023-06-04T05:55:02;98257.78;;;17.61;56.74
19447;BME280;9862;49.462;11.054;2023-06-04T05:57:29;98256.31;;;17.70;57.59
19447;BME280;9862;49.462;11.054;2023-06-04T05:59:55;98258.38;;;17.85;57.05
19447;BME280;9862;49.462;11.054;2023-06-04T06:02:22;98259.94;;;18.03;56.98
19447;BME280;9862;49.462;11.054;2023-06-04T06:04:49;98260.06;;;18.13;55.25
19447;BME280;9862;49.462;11.054;2023-06-04T06:07:15;98264.47;;;18.19;54.86
19447;BME280;9862;49.462;11.054;2023-06-04T06:09:45;98258.88;;;18.26;54.72
19447;BME280;9862;49.462;11.054;2023-06-04T06:12:11;98259.47;;;18.33;54.60
19447;BME280;9862;49.462;11.054;2023-06-04T06:14:38;98263.34;;;18.42;54.28
19447;BME280;9862;49.462;11.054;2023-06-04T06:17:05;98263.78;;;18.56;52.95
19447;BME280;9862;49.462;11.054;2023-06-04T06:19:31;98261.91;;;18.56;52.47
19447;BME280;9862;49.462;11.054;2023-06-04T06:21:58;98267.22;;;18.51;52.36
19447;BME280;9862;49.462;11.054;2023-06-04T06:24:25;98270.19;;;18.50;53.15
19447;BME280;9862;49.462;11.054;2023-06-04T06:26:53;98275.09;;;18.53;54.12
19447;BME280;9862;49.462;11.054;2023-06-04T06:29:19;98268.66;;;18.59;54.36
19447;BME280;9862;49.462;11.054;2023-06-04T06:31:46;98273.09;;;18.70;53.58
19447;BME280;9862;49.462;11.054;2023-06-04T06:34:13;98262.75;;;18.89;51.63
19447;BME280;9862;49.462;11.054;2023-06-04T06:36:40;98265.69;;;18.82;52.55
19447;BME280;9862;49.462;11.054;2023-06-04T06:39:07;98269.78;;;18.90;52.54
19447;BME280;9862;49.462;11.054;2023-06-04T06:41:34;98269.22;;;18.88;52.59
19447;BME280;9862;49.462;11.054;2023-06-04T06:44:02;98275.53;;;18.99;51.56
19447;BME280;9862;49.462;11.054;2023-06-04T06:46:28;98273.91;;;18.98;51.98
19447;BME280;9862;49.462;11.054;2023-06-04T06:48:55;98275.78;;;18.97;52.00
19447;BME280;9862;49.462;11.054;2023-06-04T06:51:21;98272.09;;;19.08;51.19
19447;BME280;9862;49.462;11.054;2023-06-04T06:53:49;98273.50;;;19.11;51.93
19447;BME280;9862;49.462;11.054;2023-06-04T06:56:15;98278.63;;;19.12;51.26
19447;BME280;9862;49.462;11.054;2023-06-04T06:58:43;98275.41;;;19.15;50.93
19447;BME280;9862;49.462;11.054;2023-06-04T07:01:12;98277.50;;;19.08;51.57
19447;BME280;9862;49.462;11.054;2023-06-04T07:03:39;98278.09;;;19.15;51.32
19447;BME280;9862;49.462;11.054;2023-06-04T07:06:06;98271.72;;;19.27;51.65
19447;BME280;9862;49.462;11.054;2023-06-04T07:08:33;98284.19;;;19.33;51.80
19447;BME280;9862;49.462;11.054;2023-06-04T07:11:01;98273.06;;;19.29;51.91
19447;BME280;9862;49.462;11.054;2023-06-04T07:13:28;98271.50;;;19.38;52.23
19447;BME280;9862;49.462;11.054;2023-06-04T07:15:57;98276.41;;;19.41;52.87
19447;BME280;9862;49.462;11.054;2023-06-04T07:18:25;98273.31;;;19.60;50.96
19447;BME280;9862;49.462;11.054;2023-06-04T07:20:52;98275.34;;;19.48;51.75
19447;BME280;9862;49.462;11.054;2023-06-04T07:23:18;98272.66;;;19.48;52.47
19447;BME280;9862;49.462;11.054;2023-06-04T07:25:45;98275.41;;;19.53;51.09
19447;BME280;9862;49.462;11.054;2023-06-04T07:28:12;98276.25;;;19.58;51.12
19447;BME280;9862;49.462;11.054;2023-06-04T07:30:39;98275.56;;;19.73;51.06
19447;BME280;9862;49.462;11.054;2023-06-04T07:33:06;98272.31;;;19.76;50.42
19447;BME280;9862;49.462;11.054;2023-06-04T07:35:34;98275.03;;;19.76;51.34
19447;BME280;9862;49.462;11.054;2023-06-04T07:38:00;98259.31;;;19.68;52.44
19447;BME280;9862;49.462;11.054;2023-06-04T07:40:27;98269.06;;;19.74;52.36
19447;BME280;9862;49.462;11.054;2023-06-04T07:42:54;98270.47;;;19.82;51.70
19447;BME280;9862;49.462;11.054;2023-06-04T07:45:20;98272.38;;;19.86;51.22
19447;BME280;9862;49.462;11.054;2023-06-04T07:47:47;98265.94;;;19.92;51.85
19447;BME280;9862;49.462;11.054;2023-06-04T07:50:14;98263.53;;;20.01;51.46
19447;BME280;9862;49.462;11.054;2023-06-04T07:52:42;98264.09;;;20.03;51.46
19447;BME280;9862;49.462;11.054;2023-06-04T07:55:09;98265.75;;;20.09;52.43
19447;BME280;9862;49.462;11.054;2023-06-04T07:57:36;98263.63;;;20.21;51.24
19447;BME280;9862;49.462;11.054;2023-06-04T08:00:03;98269.28;;;20.25;50.96
19447;BME280;9862;49.462;11.054;2023-06-04T08:02:30;98261.75;;;20.27;51.61
19447;BME280;9862;49.462;11.054;2023-06-04T08:04:57;98259.91;;;20.43;50.68
19447;BME280;9862;49.462;11.054;2023-06-04T08:07:24;98253.66;;;20.42;51.69
19447;BME280;9862;49.462;11.054;2023-06-04T08:09:52;98259.69;;;20.49;51.27
19447;BME280;9862;49.462;11.054;2023-06-04T08:12:19;98255.06;;;20.55;51.33
19447;BME280;9862;49.462;11.054;2023-06-04T08:14:45;98256.97;;;20.65;50.53
19447;BME280;9862;49.462;11.054;2023-06-04T08:17:12;98255.38;;;20.69;50.77
19447;BME280;9862;49.462;11.054;2023-06-04T08:19:39;98250.50;;;20.71;50.83
19447;BME280;9862;49.462;11.054;2023-06-04T08:22:05;98257.56;;;20.77;51.18
19447;BME280;9862;49.462;11.054;2023-06-04T08:24:32;98254.31;;;20.90;49.68
19447;BME280;9862;49.462;11.054;2023-06-04T08:27:00;98250.53;;;20.91;50.10
19447;BME280;9862;49.462;11.054;2023-06-04T08:29:27;98247.28;;;20.99;50.75
19447;BME280;9862;49.462;11.054;2023-06-04T08:31:53;98252.69;;;20.99;50.09
19447;BME280;9862;49.462;11.054;2023-06-04T08:34:20;98250.81;;;21.05;50.56
19447;BME280;9862;49.462;11.054;2023-06-04T08:36:47;98252.69;;;21.09;50.98
19447;BME280;9862;49.462;11.054;2023-06-04T08:39:13;98251.06;;;21.19;50.99
19447;BME280;9862;49.462;11.054;2023-06-04T08:41:43;98247.28;;;21.40;50.16
19447;BME280;9862;49.462;11.054;2023-06-04T08:44:11;98251.59;;;21.41;48.41
19447;BME280;9862;49.462;11.054;2023-06-04T08:46:38;98255.94;;;21.17;48.76
19447;BME280;9862;49.462;11.054;2023-06-04T08:49:07;98246.19;;;21.21;49.49
19447;BME280;9862;49.462;11.054;2023-06-04T08:51:35;98251.63;;;21.31;48.35
19447;BME280;9862;49.462;11.054;2023-06-04T08:54:03;98246.50;;;21.34;46.97
19447;BME280;9862;49.462;11.054;2023-06-04T08:56:30;98247.84;;;21.27;48.14
19447;BME280;9862;49.462;11.054;2023-06-04T08:59:00;98245.94;;;21.27;47.43
19447;BME280;9862;49.462;11.054;2023-06-04T09:01:29;98252.72;;;21.35;47.25
19447;BME280;9862;49.462;11.054;2023-06-04T09:03:57;98243.44;;;21.61;44.30
19447;BME280;9862;49.462;11.054;2023-06-04T09:06:25;98242.09;;;21.64;43.88
19447;BME280;9862;49.462;11.054;2023-06-04T09:08:54;98246.16;;;21.51;44.63
19447;BME280;9862;49.462;11.054;2023-06-04T09:11:23;98248.88;;;21.51;44.25
19447;BME280;9862;49.462;11.054;2023-06-04T09:13:53;98261.06;;;21.49;45.39
19447;BME280;9862;49.462;11.054;2023-06-04T09:16:24;98249.16;;;21.50;44.06
19447;BME280;9862;49.462;11.054;2023-06-04T09:18:53;98247.56;;;21.43;44.81
19447;BME280;9862;49.462;11.054;2023-06-04T09:21:20;98261.91;;;21.39;45.40
19447;BME280;9862;49.462;11.054;2023-06-04T09:23:47;98254.81;;;21.68;43.95
19447;BME280;9862;49.462;11.054;2023-06-04T09:26:14;98254.84;;;21.58;43.70
19447;BME280;9862;49.462;11.054;2023-06-04T09:28:41;98251.06;;;21.49;44.41
19447;BME280;9862;49.462;11.054;2023-06-04T09:31:08;98246.16;;;21.51;45.42
19447;BME280;9862;49.462;11.054;2023-06-04T09:33:44;98246.97;;;21.67;44.58
19447;BME280;9862;49.462;11.054;2023-06-04T09:36:12;98242.59;;;21.76;44.46
19447;BME280;9862;49.462;11.054;2023-06-04T09:38:39;98246.34;;;21.90;45.13
19447;BME280;9862;49.462;11.054;2023-06-04T09:41:11;98248.47;;;22.04;44.52
19447;BME280;9862;49.462;11.054;2023-06-04T09:43:38;98245.47;;;22.05;43.39
19447;BME280;9862;49.462;11.054;2023-06-04T09:46:09;98251.19;;;22.04;44.17
19447;BME280;9862;49.462;11.054;2023-06-04T09:48:37;98234.09;;;22.13;43.65
19447;BME280;9862;49.462;11.054;2023-06-04T09:51:08;98234.66;;;22.10;43.79
19447;BME280;9862;49.462;11.054;2023-06-04T09:53:36;98228.63;;;22.18;44.17
19447;BME280;9862;49.462;11.054;2023-06-04T09:56:03;98231.84;;;22.25;43.78
19447;BME280;9862;49.462;11.054;2023-06-04T09:58:32;98230.34;;;22.48;41.46
19447;BME280;9862;49.462;11.054;2023-06-04T10:01:00;98232.00;;;22.49;40.87
19447;BME280;9862;49.462;11.054;2023-06-04T10:03:30;98236.91;;;22.42;41.44
19447;BME280;9862;49.462;11.054;2023-06-04T10:05:58;98237.69;;;22.48;41.64
19447;BME280;9862;49.462;11.054;2023-06-04T10:08:27;98233.91;;;22.49;39.89
19447;BME280;9862;49.462;11.054;2023-06-04T10:10:58;98233.91;;;22.49;40.28
19447;BME280;9862;49.462;11.054;2023-06-04T10:13:27;98235.91;;;22.72;39.12
19447;BME280;9862;49.462;11.054;2023-06-04T10:15:56;98232.66;;;22.70;38.67
19447;BME280;9862;49.462;11.054;2023-06-04T10:18:24;98226.66;;;22.73;37.63
19447;BME280;9862;49.462;11.054;2023-06-04T10:20:53;98230.41;;;22.82;37.38
19447;BME280;9862;49.462;11.054;2023-06-04T10:23:21;98226.91;;;22.77;37.96
19447;BME280;9862;49.462;11.054;2023-06-04T10:25:49;98230.97;;;22.79;39.30
19447;BME280;9862;49.462;11.054;2023-06-04T10:28:19;98227.91;;;22.91;38.95
19447;BME280;9862;49.462;11.054;2023-06-04T10:30:46;98223.78;;;22.99;38.73
19447;BME280;9862;49.462;11.054;2023-06-04T10:33:16;98222.84;;;23.13;38.80
19447;BME280;9862;49.462;11.054;2023-06-04T10:35:43;98222.03;;;23.13;37.98
19447;BME280;9862;49.462;11.054;2023-06-04T10:38:11;98221.22;;;23.12;38.57
19447;BME280;9862;49.462;11.054;2023-06-04T10:40:39;98218.28;;;23.09;37.94
19447;BME280;9862;49.462;11.054;2023-06-04T10:43:07;98213.22;;;23.26;37.42
19447;BME280;9862;49.462;11.054;2023-06-04T10:45:35;98214.19;;;23.06;37.41
19447;BME280;9862;49.462;11.054;2023-06-04T10:48:03;98215.09;;;22.97;37.77
19447;BME280;9862;49.462;11.054;2023-06-04T10:50:31;98227.63;;;22.93;38.65
19447;BME280;9862;49.462;11.054;2023-06-04T10:52:58;98217.78;;;23.02;36.46
19447;BME280;9862;49.462;11.054;2023-06-04T10:55:28;98210.75;;;23.01;36.54
19447;BME280;9862;49.462;11.054;2023-06-04T10:57:56;98218.16;;;22.90;36.87
19447;BME280;9862;49.462;11.054;2023-06-04T11:00:35;98212.13;;;22.98;36.85
19447;BME280;9862;49.462;11.054;2023-06-04T11:03:04;98211.78;;;23.05;37.07
19447;BME280;9862;49.462;11.054;2023-06-04T11:05:35;98214.59;;;22.95;36.89
19447;BME280;9862;49.462;11.054;2023-06-04T11:08:03;98209.66;;;22.97;36.81
19447;BME280;9862;49.462;11.054;2023-06-04T11:10:32;98205.00;;;23.07;36.34
19447;BME280;9862;49.462;11.054;2023-06-04T11:13:00;98202.69;;;23.20;36.50
19447;BME280;9862;49.462;11.054;2023-06-04T11:15:26;98198.88;;;23.21;36.29
19447;BME280;9862;49.462;11.054;2023-06-04T11:17:55;98201.78;;;23.29;36.33
19447;BME280;9862;49.462;11.054;2023-06-04T11:20:23;98204.97;;;23.36;36.15
19447;BME280;9862;49.462;11.054;2023-06-04T11:22:52;98195.00;;;23.56;36.00
19447;BME280;9862;49.462;11.054;2023-06-04T11:25:19;98202.28;;;23.60;35.32
19447;BME280;9862;49.462;11.054;2023-06-04T11:27:47;98202.59;;;23.54;34.38
19447;BME280;9862;49.462;11.054;2023-06-04T11:30:14;98200.75;;;23.49;34.92
19447;BME280;9862;49.462;11.054;2023-06-04T11:32:41;98197.56;;;23.71;33.48
19447;BME280;9862;49.462;11.054;2023-06-04T11:35:10;98195.00;;;23.56;34.05
19447;BME280;9862;49.462;11.054;2023-06-04T11:37:37;98199.25;;;23.67;34.61
19447;BME280;9862;49.462;11.054;2023-06-04T11:40:15;98190.03;;;23.63;34.09
19447;BME280;9862;49.462;11.054;2023-06-04T11:42:42;98186.16;;;23.45;35.59
19447;BME280;9862;49.462;11.054;2023-06-04T11:45:10;98187.00;;;23.40;36.91
19447;BME280;9862;49.462;11.054;2023-06-04T11:47:37;98185.19;;;23.60;36.39
19447;BME280;9862;49.462;11.054;2023-06-04T11:50:04;98187.09;;;23.54;35.79
19447;BME280;9862;49.462;11.054;2023-06-04T11:52:33;98173.13;;;23.42;35.73
19447;BME280;9862;49.462;11.054;2023-06-04T11:55:00;98176.94;;;23.41;36.63
19447;BME280;9862;49.462;11.054;2023-06-04T11:57:26;98173.94;;;23.42;36.91
19447;BME280;9862;49.462;11.054;2023-06-04T11:59:54;98174.75;;;23.43;37.31
19447;BME280;9862;49.462;11.054;2023-06-04T12:02:20;98179.31;;;23.48;36.88
19447;BME280;9862;49.462;11.054;2023-06-04T12:04:47;98177.59;;;23.57;36.98
19447;BME280;9862;49.462;11.054;2023-06-04T12:07:19;98178.06;;;23.64;35.50
19447;BME280;9862;49.462;11.054;2023-06-04T12:09:50;98173.16;;;23.66;35.85
19447;BME280;9862;49.462;11.054;2023-06-04T12:12:22;98163.78;;;23.77;35.15
19447;BME280;9862;49.462;11.054;2023-06-04T12:14:56;98164.47;;;23.88;34.60
19447;BME280;9862;49.462;11.054;2023-06-04T12:17:23;98163.16;;;23.85;35.30
19447;BME280;9862;49.462;11.054;2023-06-04T12:19:50;98162.03;;;23.86;35.71
19447;BME280;9862;49.462;11.054;2023-06-04T12:22:18;98158.94;;;23.93;36.23
19447;BME280;9862;49.462;11.054;2023-06-04T12:24:51;98161.00;;;24.01;35.93
19447;BME280;9862;49.462;11.054;2023-06-04T12:27:19;98168.22;;;24.11;35.80
19447;BME280;9862;49.462;11.054;2023-06-04T12:29:54;98172.94;;;24.24;34.31
19447;BME280;9862;49.462;11.054;2023-06-04T12:32:21;98170.75;;;24.26;34.50
19447;BME280;9862;49.462;11.054;2023-06-04T12:34:48;98166.31;;;24.30;33.24
19447;BME280;9862;49.462;11.054;2023-06-04T12:37:14;98164.19;;;24.27;34.09
19447;BME280;9862;49.462;11.054;2023-06-04T12:39:41;98159.59;;;24.46;32.76
19447;BME280;9862;49.462;11.054;2023-06-04T12:42:09;98152.69;;;24.35;33.58
19447;BME280;9862;49.462;11.054;2023-06-04T12:44:36;98149.50;;;24.47;33.21
19447;BME280;9862;49.462;11.054;2023-06-04T12:47:03;98144.72;;;24.39;32.95
19447;BME280;9862;49.462;11.054;2023-06-04T12:49:30;98141.66;;;24.45;32.94
19447;BME280;9862;49.462;11.054;2023-06-04T12:51:57;98146.59;;;24.43;32.66
19447;BME280;9862;49.462;11.054;2023-06-04T12:54:24;98146.66;;;24.38;34.18
19447;BME280;9862;49.462;11.054;2023-06-04T12:56:52;98138.41;;;24.43;33.51
19447;BME280;9862;49.462;11.054;2023-06-04T12:59:20;98135.44;;;24.59;31.57
19447;BME280;9862;49.462;11.054;2023-06-04T13:01:47;98137.91;;;24.74;31.77